SPHI/CIX METAR and TAF weather

Enter ICAO airport designator
Station Type Date Time Source
SPHI METAR 2022/05/23 13:00 UTC NOAA

SPHI 231300Z 18006KT 9999 FEW010 17/14 Q1017 RMK BIRD HAZARD RWY 19/01 PP000


Station Type Date Time Source
SPHI Decoded METAR 2022/05/23 13:00 UTC NOAA

Chiclayo, Peru (SPHI) 06-47S 079-50W 34M
May 23, 2022 - 09:00 AM EDT / 2022.05.23 1300 UTC
Wind: from the S (180 degrees) at 7 MPH (6 KT):0
Visibility: greater than 7 mile(s):0
Sky conditions: mostly clear
Temperature: 62 F (17 C)
Dew Point: 57 F (14 C)
Relative Humidity: 82%
Pressure (altimeter): 30.03 in. Hg (1017 hPa)
ob: SPHI 231300Z 18006KT 9999 FEW010 17/14 Q1017 RMK BIRD HAZARD RWY 19/01 PP000
cycle: 13

Station Type Date Time Source
SPHI TAF 2022/05/23 12:39 UTC NOAA

TAF SPHI 231105Z 2312/2412 18010KT CAVOK TX23/2319Z TN16/2411Z
TEMPO 2312/2313 BKN006
BECMG 2319/2321 18020KT
BECMG 2403/2407 18010KT

Example: see airport list